Time;durP1;ratioP1;P1;durP2;ratioP2;P2;SDS_P1;SDS_P2;PMS_P1;PMS_P2;Temp;Humidity;BMP_temperature;BMP_pressure;BME280_temperature;BME280_humidity;BME280_pressure;Samples;Min_cycle;Max_cycle;Signal;HPM_P1;HPM_P2
2023/10/28 00:00:59;;;;;;;3.60;1.58;;;9.10;99.90;;;;;;5010662;28;20036;-72
2023/10/28 00:03:25;;;;;;;9.93;2.30;;;9.10;99.90;;;;;;4992829;28;20096;-73
2023/10/28 00:05:51;;;;;;;5.80;2.08;;;9.10;99.90;;;;;;5009782;28;20109;-74
2023/10/28 00:08:17;;;;;;;6.63;2.42;;;9.10;99.90;;;;;;5010148;28;20167;-72
2023/10/28 00:10:44;;;;;;;4.85;2.00;;;9.00;99.90;;;;;;5010047;28;20135;-72
2023/10/28 00:13:12;;;;;;;5.07;2.20;;;9.00;99.90;;;;;;5009441;28;20046;-72
2023/10/28 00:15:38;;;;;;;5.35;1.80;;;9.00;99.90;;;;;;4996377;28;20038;-72
2023/10/28 00:18:05;;;;;;;4.85;1.80;;;9.10;99.90;;;;;;5001993;28;20559;-74
2023/10/28 00:20:30;;;;;;;5.57;1.50;;;9.10;99.90;;;;;;5009878;28;20033;-78
2023/10/28 00:22:57;;;;;;;2.92;1.50;;;9.10;99.90;;;;;;5009452;28;20037;-73
2023/10/28 00:25:28;;;;;;;3.58;1.27;;;9.20;99.90;;;;;;4991906;28;20759;-73
2023/10/28 00:27:55;;;;;;;3.40;0.95;;;9.20;99.90;;;;;;5009604;28;20522;-73
2023/10/28 00:30:24;;;;;;;5.38;0.98;;;9.30;99.90;;;;;;5009705;28;20030;-72
2023/10/28 00:32:53;;;;;;;4.93;1.05;;;9.40;99.90;;;;;;5009106;28;20061;-74
2023/10/28 00:35:23;;;;;;;3.30;0.73;;;9.40;99.90;;;;;;5012184;28;20038;-73
2023/10/28 00:37:49;;;;;;;2.45;0.60;;;9.50;99.90;;;;;;5011559;28;20040;-76
2023/10/28 00:40:15;;;;;;;1.42;0.65;;;9.50;99.90;;;;;;5011574;28;20021;-73
2023/10/28 00:42:41;;;;;;;1.45;0.70;;;9.50;99.90;;;;;;5008724;28;20046;-74
2023/10/28 00:45:11;;;;;;;1.40;0.60;;;9.60;99.90;;;;;;5009717;28;20056;-72
2023/10/28 00:47:38;;;;;;;1.23;0.55;;;9.50;99.90;;;;;;5010087;28;20470;-79
2023/10/28 00:50:12;;;;;;;1.15;0.50;;;9.60;99.90;;;;;;5009459;28;20108;-76
2023/10/28 00:52:44;;;;;;;0.80;0.47;;;9.50;99.90;;;;;;5008716;28;20052;-75
2023/10/28 00:55:11;;;;;;;2.17;0.65;;;9.60;99.90;;;;;;5009898;28;20128;-73
2023/10/28 00:57:39;;;;;;;0.75;0.40;;;9.60;99.90;;;;;;5009055;28;20032;-77
2023/10/28 01:00:08;;;;;;;3.42;0.38;;;9.60;99.90;;;;;;5008054;28;20788;-74
2023/10/28 01:02:42;;;;;;;2.13;0.40;;;9.60;99.90;;;;;;5008847;28;20091;-79
2023/10/28 01:05:11;;;;;;;1.27;0.32;;;9.50;99.90;;;;;;5010319;28;20037;-72
2023/10/28 01:07:39;;;;;;;2.95;0.50;;;9.50;99.90;;;;;;5008604;28;20127;-79
2023/10/28 01:10:05;;;;;;;0.88;0.30;;;9.50;99.90;;;;;;5008853;28;20485;-74
2023/10/28 01:12:31;;;;;;;1.20;0.50;;;9.50;99.90;;;;;;5008842;28;20508;-72
2023/10/28 01:14:57;;;;;;;1.90;0.50;;;9.50;99.90;;;;;;4990496;28;20157;-74
2023/10/28 01:17:26;;;;;;;0.90;0.30;;;9.50;99.90;;;;;;5008450;28;20083;-72
2023/10/28 01:19:53;;;;;;;1.88;0.50;;;9.50;99.90;;;;;;5009828;28;20025;-74
2023/10/28 01:22:19;;;;;;;0.60;0.40;;;9.60;99.90;;;;;;4991101;28;20447;-74
2023/10/28 01:24:45;;;;;;;1.48;0.50;;;9.50;99.90;;;;;;5007631;28;20442;-72
2023/10/28 01:27:11;;;;;;;2.33;0.30;;;9.50;99.90;;;;;;5009196;28;20081;-74
2023/10/28 01:29:37;;;;;;;1.65;0.40;;;9.50;99.90;;;;;;5008544;28;20057;-79
2023/10/28 01:32:03;;;;;;;1.48;0.38;;;9.50;99.90;;;;;;5008722;28;20032;-73
2023/10/28 01:34:30;;;;;;;1.15;0.50;;;9.50;99.90;;;;;;5006796;28;20054;-72
2023/10/28 01:36:56;;;;;;;2.00;0.45;;;9.60;99.90;;;;;;5007966;28;20255;-72
2023/10/28 01:39:22;;;;;;;2.20;0.40;;;9.60;99.90;;;;;;5016382;28;20022;-74
2023/10/28 01:41:47;;;;;;;0.77;0.30;;;9.60;99.90;;;;;;5006027;28;20045;-73
2023/10/28 01:44:14;;;;;;;0.85;0.40;;;9.60;99.90;;;;;;4986245;28;20041;-74
2023/10/28 01:46:41;;;;;;;2.60;0.50;;;9.60;99.90;;;;;;5010927;28;20036;-74
2023/10/28 01:49:06;;;;;;;2.30;0.40;;;9.60;99.90;;;;;;5015507;28;20034;-73
2023/10/28 01:51:32;;;;;;;0.75;0.35;;;9.60;99.90;;;;;;4989764;28;20455;-72
2023/10/28 01:53:58;;;;;;;2.05;0.40;;;9.70;99.90;;;;;;5004433;28;20590;-73
2023/10/28 01:56:23;;;;;;;1.30;0.30;;;9.70;99.90;;;;;;5007497;28;20038;-75
2023/10/28 01:58:49;;;;;;;0.70;0.30;;;9.70;99.90;;;;;;5007871;28;20482;-73
2023/10/28 02:01:15;;;;;;;3.05;0.30;;;9.70;99.90;;;;;;5008378;28;20394;-74
2023/10/28 02:03:40;;;;;;;1.48;0.43;;;9.70;99.90;;;;;;5007469;28;20463;-79
2023/10/28 02:06:07;;;;;;;7.78;0.30;;;9.70;99.90;;;;;;5008150;28;20056;-76
2023/10/28 02:08:33;;;;;;;2.08;0.30;;;9.70;99.90;;;;;;5008622;28;20485;-73
2023/10/28 02:10:59;;;;;;;3.22;0.30;;;9.70;99.90;;;;;;5007620;28;20026;-74
2023/10/28 02:13:24;;;;;;;1.52;0.60;;;9.70;99.90;;;;;;5007791;28;20077;-75
2023/10/28 02:15:50;;;;;;;1.33;0.30;;;9.70;99.90;;;;;;5004797;28;20085;-75
2023/10/28 02:18:18;;;;;;;3.58;0.60;;;9.70;99.90;;;;;;5008483;28;20026;-75
2023/10/28 02:20:45;;;;;;;1.85;0.40;;;9.70;99.90;;;;;;5007255;28;20084;-74
2023/10/28 02:23:13;;;;;;;1.38;0.40;;;9.70;99.90;;;;;;5007853;28;20038;-73
2023/10/28 02:25:41;;;;;;;3.28;0.50;;;9.80;99.90;;;;;;5007738;28;20038;-79
2023/10/28 02:28:08;;;;;;;0.50;0.30;;;9.80;99.90;;;;;;5008288;28;20060;-73
2023/10/28 02:30:38;;;;;;;2.65;0.50;;;9.80;99.90;;;;;;5007717;28;20076;-74
2023/10/28 02:33:03;;;;;;;1.67;0.40;;;9.80;99.90;;;;;;5006867;28;20026;-75
2023/10/28 02:35:29;;;;;;;6.82;0.52;;;9.70;99.90;;;;;;5007698;28;20145;-73
2023/10/28 02:37:54;;;;;;;1.45;0.50;;;9.70;99.90;;;;;;5007608;28;20366;-73
2023/10/28 02:40:20;;;;;;;2.67;0.40;;;9.70;99.90;;;;;;5008005;28;20422;-74
2023/10/28 02:42:46;;;;;;;5.35;0.70;;;9.70;99.90;;;;;;5007085;28;20034;-75
2023/10/28 02:45:11;;;;;;;2.45;0.63;;;9.60;99.90;;;;;;5007717;28;20034;-73
2023/10/28 02:47:37;;;;;;;5.60;0.82;;;9.60;99.90;;;;;;4989323;28;20029;-77
2023/10/28 02:50:04;;;;;;;2.65;0.52;;;9.60;99.90;;;;;;5006478;28;20040;-73
2023/10/28 02:52:30;;;;;;;4.90;0.50;;;9.60;99.90;;;;;;5008053;28;20034;-74
2023/10/28 02:54:55;;;;;;;3.20;0.50;;;9.60;99.90;;;;;;5016718;28;20041;-73
2023/10/28 02:57:21;;;;;;;4.32;0.57;;;9.60;99.90;;;;;;5007787;28;20026;-74
2023/10/28 02:59:47;;;;;;;2.90;0.50;;;9.50;99.90;;;;;;5004656;28;20415;-73
2023/10/28 03:02:12;;;;;;;9.98;0.85;;;9.50;99.90;;;;;;4987928;28;20030;-72
2023/10/28 03:04:39;;;;;;;2.38;0.57;;;9.60;99.90;;;;;;5015048;28;20044;-73
2023/10/28 03:07:04;;;;;;;3.83;0.47;;;9.50;99.90;;;;;;5006148;28;20153;-75
2023/10/28 03:09:33;;;;;;;7.40;0.80;;;9.50;99.90;;;;;;5014159;28;20121;-74
2023/10/28 03:11:58;;;;;;;5.20;0.63;;;9.40;99.90;;;;;;4999662;28;20034;-75
2023/10/28 03:14:24;;;;;;;2.53;0.80;;;9.30;99.90;;;;;;5011142;28;20057;-73
2023/10/28 03:16:49;;;;;;;1.92;0.60;;;9.40;99.90;;;;;;4989227;28;20124;-72
2023/10/28 03:19:15;;;;;;;3.05;0.70;;;9.30;99.90;;;;;;4989886;28;20038;-73
2023/10/28 03:21:41;;;;;;;1.35;0.63;;;9.30;99.90;;;;;;5007208;28;20026;-79
2023/10/28 03:24:07;;;;;;;5.25;0.98;;;9.20;99.90;;;;;;4990848;28;20160;-74
2023/10/28 03:26:32;;;;;;;4.65;0.90;;;9.20;99.90;;;;;;5010680;28;20121;-73
2023/10/28 03:28:59;;;;;;;2.88;0.90;;;9.20;99.90;;;;;;5010725;28;20069;-77
2023/10/28 03:31:26;;;;;;;4.38;0.77;;;9.20;99.90;;;;;;5011105;28;20057;-76
2023/10/28 03:33:51;;;;;;;7.85;1.00;;;9.10;99.90;;;;;;5010544;28;20444;-76
2023/10/28 03:36:17;;;;;;;3.88;0.80;;;9.10;99.90;;;;;;5010932;28;20026;-74
2023/10/28 03:38:43;;;;;;;5.00;1.00;;;9.10;99.90;;;;;;5010227;28;20716;-79
2023/10/28 03:41:09;;;;;;;4.63;0.80;;;9.20;99.90;;;;;;5010405;28;20041;-73
2023/10/28 03:43:35;;;;;;;3.95;0.85;;;9.20;99.90;;;;;;5010761;28;20038;-72
2023/10/28 03:46:01;;;;;;;3.25;0.80;;;9.20;99.90;;;;;;5007818;28;20033;-72
2023/10/28 03:48:28;;;;;;;2.28;0.65;;;9.20;99.90;;;;;;5010387;28;20517;-72
2023/10/28 03:51:02;;;;;;;7.15;1.30;;;9.20;99.90;;;;;;5012815;28;20121;-74
2023/10/28 03:53:28;;;;;;;2.15;0.68;;;9.20;99.90;;;;;;4993181;28;20077;-74
2023/10/28 03:55:54;;;;;;;9.88;0.77;;;9.30;99.90;;;;;;4990774;28;20076;-73
2023/10/28 03:58:20;;;;;;;3.40;0.80;;;9.30;99.90;;;;;;5000652;28;20032;-73
2023/10/28 04:00:53;;;;;;;1.63;0.63;;;9.40;99.90;;;;;;5009962;28;20390;-79
2023/10/28 04:03:23;;;;;;;4.78;0.77;;;9.50;99.90;;;;;;5010646;28;20029;-73
2023/10/28 04:05:49;;;;;;;5.60;1.03;;;9.50;99.90;;;;;;5009833;28;20502;-74
2023/10/28 04:08:15;;;;;;;10.52;0.80;;;9.50;99.90;;;;;;4992523;28;20030;-73
2023/10/28 04:10:41;;;;;;;3.35;0.80;;;9.40;99.90;;;;;;5009824;28;20037;-74
2023/10/28 04:13:07;;;;;;;3.53;0.90;;;9.50;99.90;;;;;;5009239;28;20034;-73
2023/10/28 04:15:35;;;;;;;8.90;0.98;;;9.50;99.90;;;;;;5007991;28;20045;-73
2023/10/28 04:18:01;;;;;;;4.75;1.00;;;9.50;99.90;;;;;;5009360;28;20026;-73
2023/10/28 04:20:27;;;;;;;9.38;1.08;;;9.50;99.90;;;;;;5010058;28;20038;-73
2023/10/28 04:22:53;;;;;;;7.68;1.23;;;9.50;99.90;;;;;;5009624;28;20042;-72
2023/10/28 04:25:19;;;;;;;2.10;0.50;;;9.50;99.90;;;;;;5010370;28;20037;-75
2023/10/28 04:27:44;;;;;;;9.85;1.33;;;9.60;99.90;;;;;;5009575;28;20036;-79
2023/10/28 04:30:10;;;;;;;6.38;0.63;;;9.50;99.90;;;;;;5009183;28;20033;-73
2023/10/28 04:32:40;;;;;;;5.15;0.88;;;9.50;99.90;;;;;;5010170;28;20120;-73
2023/10/28 04:35:10;;;;;;;6.25;0.85;;;9.50;99.90;;;;;;5008976;28;20060;-73
2023/10/28 04:37:36;;;;;;;5.88;0.88;;;9.50;99.90;;;;;;5010050;28;20108;-74
2023/10/28 04:40:04;;;;;;;7.70;1.05;;;9.50;99.90;;;;;;5008857;28;20171;-73
2023/10/28 04:42:29;;;;;;;8.18;0.70;;;9.50;99.90;;;;;;5009629;28;20051;-74
2023/10/28 04:44:55;;;;;;;8.75;1.00;;;9.50;99.90;;;;;;5005885;28;20498;-72
2023/10/28 04:47:20;;;;;;;3.50;1.05;;;9.40;99.90;;;;;;5007015;28;20022;-72
2023/10/28 04:49:46;;;;;;;6.82;1.17;;;9.50;99.90;;;;;;4991653;28;20521;-78
2023/10/28 04:52:11;;;;;;;4.85;0.98;;;9.50;99.90;;;;;;5009729;28;20022;-73
2023/10/28 04:54:40;;;;;;;4.15;1.10;;;9.40;99.90;;;;;;5007762;28;20041;-72
2023/10/28 04:57:05;;;;;;;3.17;1.08;;;9.40;99.90;;;;;;4990470;28;20034;-72
2023/10/28 04:59:31;;;;;;;5.28;1.02;;;9.50;99.90;;;;;;5009313;28;20120;-73
2023/10/28 05:01:57;;;;;;;6.38;1.15;;;9.50;99.90;;;;;;5007998;28;20439;-72
2023/10/28 05:04:27;;;;;;;5.35;1.40;;;9.50;99.90;;;;;;5009367;28;20041;-72
2023/10/28 05:06:53;;;;;;;9.02;1.50;;;9.50;99.90;;;;;;4991056;28;20422;-72
2023/10/28 05:09:20;;;;;;;3.58;0.95;;;9.50;99.90;;;;;;5009145;28;20026;-74
2023/10/28 05:11:46;;;;;;;9.07;1.33;;;9.50;99.90;;;;;;5008714;28;20034;-73
2023/10/28 05:14:13;;;;;;;10.10;1.30;;;9.50;99.90;;;;;;5008251;28;20053;-72
2023/10/28 05:16:38;;;;;;;3.15;1.05;;;9.40;99.90;;;;;;5014981;28;20033;-74
2023/10/28 05:19:04;;;;;;;5.53;1.30;;;9.40;99.90;;;;;;5009058;28;20033;-72
2023/10/28 05:21:30;;;;;;;6.13;1.10;;;9.30;99.90;;;;;;5007449;28;20042;-73
2023/10/28 05:23:55;;;;;;;6.13;1.02;;;9.30;99.90;;;;;;5003936;28;20038;-73
2023/10/28 05:26:21;;;;;;;5.90;1.40;;;9.20;99.90;;;;;;5009090;28;20022;-72
2023/10/28 05:28:46;;;;;;;9.05;1.35;;;9.20;99.90;;;;;;5008615;28;20038;-72
2023/10/28 05:31:14;;;;;;;11.65;1.52;;;9.20;99.90;;;;;;4989242;28;20022;-71
2023/10/28 05:33:39;;;;;;;3.03;0.82;;;9.20;99.90;;;;;;5008992;28;20041;-73
2023/10/28 05:36:06;;;;;;;5.95;0.98;;;9.20;99.90;;;;;;4990344;28;20042;-74
2023/10/28 05:38:31;;;;;;;7.32;1.05;;;9.30;99.90;;;;;;5007212;28;20484;-74
2023/10/28 05:40:57;;;;;;;3.92;0.98;;;9.30;99.90;;;;;;5008870;28;20113;-72
2023/10/28 05:43:23;;;;;;;5.18;1.02;;;9.30;99.90;;;;;;5011193;28;20500;-73
2023/10/28 05:45:48;;;;;;;4.60;1.20;;;9.30;99.90;;;;;;5014024;28;20489;-78
2023/10/28 05:48:14;;;;;;;11.13;1.25;;;9.30;99.90;;;;;;5008746;28;20088;-72
2023/10/28 05:50:40;;;;;;;6.57;1.02;;;9.30;99.90;;;;;;5009048;28;20041;-73
2023/10/28 05:53:05;;;;;;;5.80;1.00;;;9.30;99.90;;;;;;5008987;28;20033;-73
2023/10/28 05:55:31;;;;;;;7.00;1.00;;;9.30;99.90;;;;;;5007237;28;20048;-69
2023/10/28 05:57:57;;;;;;;8.25;2.03;;;9.30;99.90;;;;;;5004057;28;20068;-70
2023/10/28 06:00:23;;;;;;;5.78;1.17;;;9.30;99.90;;;;;;5018408;28;20053;-70
2023/10/28 06:02:48;;;;;;;5.00;0.93;;;9.30;99.90;;;;;;5016943;28;20069;-71
2023/10/28 06:05:14;;;;;;;6.38;1.05;;;9.30;99.90;;;;;;5016274;28;20048;-70
2023/10/28 06:07:40;;;;;;;6.00;1.17;;;9.30;99.90;;;;;;5017695;28;20458;-71
2023/10/28 06:10:07;;;;;;;4.30;1.02;;;9.30;99.90;;;;;;5007934;28;20029;-71
2023/10/28 06:12:35;;;;;;;6.03;1.30;;;9.30;99.90;;;;;;5008095;28;20026;-69
2023/10/28 06:15:02;;;;;;;5.53;1.20;;;9.20;99.90;;;;;;4989518;28;20085;-71
2023/10/28 06:17:28;;;;;;;6.75;1.10;;;9.30;99.90;;;;;;5013427;28;20032;-70
2023/10/28 06:19:53;;;;;;;6.28;1.13;;;9.30;99.90;;;;;;5011190;28;20037;-74
2023/10/28 06:22:19;;;;;;;3.92;1.00;;;9.40;99.90;;;;;;5008098;28;20087;-70
2023/10/28 06:24:44;;;;;;;7.63;0.95;;;9.40;99.90;;;;;;5013906;28;20432;-71
2023/10/28 06:27:10;;;;;;;6.78;1.42;;;9.40;99.90;;;;;;5014813;28;20204;-71
2023/10/28 06:29:37;;;;;;;9.40;1.23;;;9.50;99.90;;;;;;5023925;28;20029;-72
2023/10/28 06:32:03;;;;;;;9.63;1.95;;;9.50;99.90;;;;;;5009084;28;20041;-70
2023/10/28 06:34:28;;;;;;;10.20;2.40;;;9.60;99.90;;;;;;5014831;28;20037;-71
2023/10/28 06:36:55;;;;;;;6.55;2.13;;;9.70;99.90;;;;;;5015753;28;20112;-73
2023/10/28 06:39:21;;;;;;;7.47;2.10;;;9.80;99.90;;;;;;5010448;28;20062;-70
2023/10/28 06:41:47;;;;;;;4.82;2.00;;;9.80;99.90;;;;;;5028166;28;20060;-71
2023/10/28 06:44:12;;;;;;;6.47;1.80;;;9.90;99.90;;;;;;5025946;28;20541;-70
2023/10/28 06:46:38;;;;;;;9.45;1.90;;;9.90;99.90;;;;;;5023325;28;20113;-71
2023/10/28 06:49:05;;;;;;;5.28;1.58;;;10.00;99.90;;;;;;5005869;28;20032;-71
2023/10/28 06:51:32;;;;;;;5.93;2.38;;;10.10;99.90;;;;;;5010831;28;20520;-71
2023/10/28 06:53:58;;;;;;;7.10;1.77;;;10.20;99.90;;;;;;5018583;28;20060;-73
2023/10/28 06:56:25;;;;;;;5.82;1.80;;;10.30;99.90;;;;;;5009186;28;20144;-72
2023/10/28 06:58:51;;;;;;;7.93;2.10;;;10.30;99.90;;;;;;5016231;28;20478;-71
2023/10/28 07:01:18;;;;;;;9.70;2.30;;;10.40;99.90;;;;;;5025898;28;20068;-71
2023/10/28 07:03:44;;;;;;;7.57;2.28;;;10.40;99.90;;;;;;5024571;28;20034;-71
2023/10/28 07:06:14;;;;;;;9.77;1.90;;;10.50;99.90;;;;;;5030058;28;20091;-71
2023/10/28 07:08:40;;;;;;;5.85;2.05;;;10.50;99.90;;;;;;5030798;28;20486;-71
2023/10/28 07:11:06;;;;;;;5.70;1.67;;;10.40;99.90;;;;;;5016337;28;20049;-71
2023/10/28 07:13:32;;;;;;;7.13;1.85;;;10.40;99.90;;;;;;5013508;28;20092;-71
2023/10/28 07:16:04;;;;;;;11.82;1.85;;;10.30;99.90;;;;;;5011218;28;20096;-74
2023/10/28 07:18:30;;;;;;;8.55;1.60;;;10.40;99.90;;;;;;5012224;28;20084;-71
2023/10/28 07:20:56;;;;;;;6.57;1.63;;;10.50;99.90;;;;;;5013332;28;20032;-73
2023/10/28 07:23:26;;;;;;;7.18;1.30;;;10.50;99.90;;;;;;5013534;28;20026;-71
2023/10/28 07:25:56;;;;;;;6.88;1.55;;;10.60;99.90;;;;;;5011283;28;20030;-72
2023/10/28 07:28:21;;;;;;;5.90;1.40;;;10.70;99.90;;;;;;5020457;28;20109;-71
2023/10/28 07:30:49;;;;;;;8.48;1.70;;;10.80;99.90;;;;;;5030409;28;20116;-71
2023/10/28 07:33:15;;;;;;;2.90;0.90;;;10.80;99.90;;;;;;5010100;28;20355;-71
2023/10/28 07:35:48;;;;;;;6.57;1.17;;;10.80;99.90;;;;;;5017853;28;20485;-71
2023/10/28 07:38:17;;;;;;;7.93;0.98;;;10.80;99.90;;;;;;4993520;28;20476;-70
2023/10/28 07:40:44;;;;;;;3.38;1.00;;;10.80;99.90;;;;;;5020858;28;20457;-70
2023/10/28 07:43:14;;;;;;;4.95;1.10;;;10.80;99.90;;;;;;5022624;28;20104;-72
2023/10/28 07:45:41;;;;;;;4.97;1.30;;;11.00;99.90;;;;;;5015349;28;20053;-71
2023/10/28 07:48:07;;;;;;;3.50;1.02;;;11.10;99.90;;;;;;5010648;28;20096;-70
2023/10/28 07:50:36;;;;;;;6.93;1.00;;;11.10;99.90;;;;;;5014843;28;20103;-71
2023/10/28 07:53:04;;;;;;;3.58;1.13;;;11.10;99.90;;;;;;5010661;28;20030;-71
2023/10/28 07:55:30;;;;;;;5.53;1.02;;;11.20;99.90;;;;;;4993152;28;20124;-70
2023/10/28 07:57:56;;;;;;;7.10;1.25;;;11.20;99.90;;;;;;5010812;28;20022;-74
2023/10/28 08:00:23;;;;;;;4.93;1.33;;;11.20;99.90;;;;;;5023688;28;20033;-72
2023/10/28 08:02:49;;;;;;;4.30;1.25;;;11.30;99.90;;;;;;5030673;28;20025;-71
2023/10/28 08:05:15;;;;;;;6.38;0.90;;;11.50;99.90;;;;;;5029850;28;20083;-72
2023/10/28 08:07:41;;;;;;;7.03;1.65;;;11.60;99.90;;;;;;5010955;28;20485;-72
2023/10/28 08:10:08;;;;;;;3.72;0.85;;;11.70;99.90;;;;;;5023255;28;20042;-71
2023/10/28 08:12:34;;;;;;;3.80;1.00;;;11.80;99.90;;;;;;5030533;28;20084;-72
2023/10/28 08:15:01;;;;;;;4.53;1.30;;;11.90;99.90;;;;;;5030097;28;20585;-74
2023/10/28 08:17:26;;;;;;;3.55;0.80;;;12.00;99.90;;;;;;5014397;28;20030;-72
2023/10/28 08:19:53;;;;;;;6.65;0.95;;;12.20;99.90;;;;;;5010371;28;20397;-72
2023/10/28 08:22:19;;;;;;;5.13;1.10;;;12.20;99.90;;;;;;5009686;28;20022;-71
2023/10/28 08:24:45;;;;;;;2.88;0.80;;;12.20;99.90;;;;;;5009969;28;20478;-71
2023/10/28 08:27:11;;;;;;;1.67;0.50;;;12.30;99.90;;;;;;5010105;28;20088;-72
2023/10/28 08:29:37;;;;;;;4.10;0.73;;;12.20;99.90;;;;;;5010326;28;20105;-72
2023/10/28 08:32:03;;;;;;;8.52;1.20;;;12.30;99.90;;;;;;5027836;28;20037;-72
2023/10/28 08:34:29;;;;;;;6.80;0.70;;;12.30;99.90;;;;;;4997207;28;20042;-72
2023/10/28 08:36:55;;;;;;;4.50;0.80;;;12.40;99.90;;;;;;5010311;28;20029;-71
2023/10/28 08:39:21;;;;;;;2.35;0.85;;;12.40;99.90;;;;;;5009115;28;20030;-71
2023/10/28 08:41:47;;;;;;;6.35;0.88;;;12.40;99.90;;;;;;5009986;28;20080;-71
2023/10/28 08:44:17;;;;;;;3.10;0.60;;;12.40;99.90;;;;;;5020726;28;20107;-72
2023/10/28 08:46:44;;;;;;;5.53;0.80;;;12.40;99.90;;;;;;5029972;28;20334;-71
2023/10/28 08:49:14;;;;;;;6.07;1.10;;;12.40;99.90;;;;;;5020187;28;20069;-72
2023/10/28 08:51:48;;;;;;;3.95;1.00;;;12.40;99.90;;;;;;5010154;28;20069;-72
2023/10/28 08:54:16;;;;;;;4.07;0.73;;;12.60;99.90;;;;;;5019571;28;20492;-72
2023/10/28 08:56:43;;;;;;;4.03;0.77;;;12.80;99.90;;;;;;5018362;28;20109;-71
2023/10/28 08:59:10;;;;;;;2.80;0.80;;;12.80;99.90;;;;;;5008729;28;20128;-71
2023/10/28 09:01:36;;;;;;;3.30;0.70;;;12.90;99.90;;;;;;5009877;28;20359;-71
2023/10/28 09:04:04;;;;;;;5.53;0.70;;;12.80;99.90;;;;;;5017815;28;20025;-73
2023/10/28 09:06:30;;;;;;;9.70;1.00;;;12.80;99.90;;;;;;5029523;28;20029;-72
2023/10/28 09:08:57;;;;;;;3.88;1.08;;;12.90;99.90;;;;;;5029713;28;20048;-72
2023/10/28 09:11:23;;;;;;;7.38;0.85;;;12.90;99.90;;;;;;5028764;28;20021;-72
2023/10/28 09:13:49;;;;;;;6.78;1.17;;;12.80;99.90;;;;;;5021409;28;20060;-71
2023/10/28 09:16:15;;;;;;;1.85;0.70;;;12.80;99.90;;;;;;5008622;28;20042;-72
2023/10/28 09:18:43;;;;;;;4.93;0.90;;;12.90;99.90;;;;;;5009257;28;20455;-72
2023/10/28 09:21:10;;;;;;;3.85;0.80;;;12.90;99.90;;;;;;5007893;28;20037;-73
2023/10/28 09:23:37;;;;;;;6.15;1.10;;;13.20;99.90;;;;;;5013138;28;20029;-72
2023/10/28 09:26:04;;;;;;;5.22;0.98;;;13.40;99.90;;;;;;5029161;28;20029;-73
2023/10/28 09:28:30;;;;;;;2.78;0.80;;;13.50;99.90;;;;;;5022605;28;20125;-72
2023/10/28 09:30:57;;;;;;;6.32;1.00;;;13.50;99.90;;;;;;5026334;28;20097;-72
2023/10/28 09:33:23;;;;;;;6.93;1.55;;;13.50;99.90;;;;;;5026552;28;20083;-71
2023/10/28 09:35:53;;;;;;;4.30;1.15;;;13.40;99.90;;;;;;5026056;28;20064;-72
2023/10/28 09:38:20;;;;;;;4.80;1.10;;;13.50;99.90;;;;;;5007469;28;20049;-73
2023/10/28 09:40:47;;;;;;;5.22;0.82;;;13.70;99.90;;;;;;5024335;28;20041;-72
2023/10/28 09:43:14;;;;;;;3.08;0.90;;;13.70;99.90;;;;;;5007757;28;20045;-73
2023/10/28 09:45:41;;;;;;;3.85;0.88;;;13.80;99.90;;;;;;5025199;28;20121;-73
2023/10/28 09:48:16;;;;;;;5.57;1.05;;;13.80;99.90;;;;;;5001063;28;20130;-72
2023/10/28 09:50:50;;;;;;;9.18;0.80;;;13.60;99.90;;;;;;5006820;28;20445;-72
2023/10/28 09:53:17;;;;;;;2.38;0.60;;;13.30;99.90;;;;;;4992269;28;20029;-72
2023/10/28 09:55:45;;;;;;;8.25;0.93;;;13.30;99.90;;;;;;4989743;28;20026;-72
2023/10/28 09:58:21;;;;;;;2.38;0.55;;;13.30;99.90;;;;;;4988420;28;20045;-73
2023/10/28 10:00:54;;;;;;;3.67;0.70;;;13.50;99.90;;;;;;5014135;28;20032;-71
2023/10/28 10:03:34;;;;;;;6.45;0.93;;;13.60;99.90;;;;;;5007970;28;20081;-72
2023/10/28 10:06:00;;;;;;;4.10;0.63;;;13.80;99.90;;;;;;5005813;28;20409;-72
2023/10/28 10:08:26;;;;;;;8.65;1.08;;;14.00;99.90;;;;;;5006306;28;20034;-72
2023/10/28 10:10:55;;;;;;;2.08;0.55;;;13.80;99.90;;;;;;5007152;28;20034;-72
2023/10/28 10:13:22;;;;;;;2.33;0.68;;;13.60;99.90;;;;;;5008212;28;20062;-71
2023/10/28 10:15:58;;;;;;;4.20;0.98;;;13.60;99.90;;;;;;5006126;28;20042;-72
2023/10/28 10:18:44;;;;;;;3.28;0.73;;;13.70;99.90;;;;;;4992942;28;20810;-73
2023/10/28 10:21:18;;;;;;;2.08;0.82;;;13.50;99.90;;;;;;5004840;28;20050;-73
2023/10/28 10:23:49;;;;;;;4.78;0.80;;;13.50;99.90;;;;;;5009031;28;20508;-72
2023/10/28 10:26:29;;;;;;;14.05;1.05;;;13.50;99.90;;;;;;5014689;28;20034;-71
2023/10/28 10:28:58;;;;;;;2.53;0.70;;;13.50;99.90;;;;;;5008793;28;20382;-73
2023/10/28 10:31:31;;;;;;;3.05;0.73;;;13.40;99.90;;;;;;5005513;28;20140;-73
2023/10/28 10:34:07;;;;;;;5.32;1.25;;;13.40;99.90;;;;;;5010471;28;20030;-72
2023/10/28 10:36:42;;;;;;;9.40;1.02;;;13.50;99.90;;;;;;5010632;28;20042;-73
2023/10/28 10:39:11;;;;;;;6.75;2.13;;;13.60;99.90;;;;;;4984836;28;20045;-73
2023/10/28 10:41:39;;;;;;;7.47;0.80;;;13.60;99.90;;;;;;5001208;28;20038;-73
2023/10/28 10:44:25;;;;;;;7.55;0.88;;;13.50;99.90;;;;;;5011771;28;20095;-73
2023/10/28 10:46:56;;;;;;;6.07;0.80;;;13.40;99.90;;;;;;5010188;28;20359;-72
2023/10/28 10:49:21;;;;;;;4.50;0.90;;;13.30;99.90;;;;;;5006679;28;20025;-72
2023/10/28 10:51:47;;;;;;;2.85;0.88;;;13.30;99.90;;;;;;5004608;28;20038;-72
2023/10/28 10:54:16;;;;;;;4.80;0.82;;;13.30;99.90;;;;;;5009974;28;20148;-71
2023/10/28 10:56:42;;;;;;;7.45;1.20;;;13.30;99.90;;;;;;5011268;28;20030;-73
2023/10/28 10:59:07;;;;;;;8.77;1.10;;;13.30;99.90;;;;;;5010255;28;20501;-73
2023/10/28 11:01:33;;;;;;;6.60;1.15;;;13.30;99.90;;;;;;5009816;28;20041;-73
2023/10/28 11:04:01;;;;;;;4.18;0.90;;;13.30;99.90;;;;;;5011232;28;20113;-72
2023/10/28 11:06:28;;;;;;;4.18;0.90;;;13.30;99.90;;;;;;4999007;28;20050;-73
2023/10/28 11:08:53;;;;;;;5.85;1.25;;;13.30;99.90;;;;;;5011455;28;20034;-72
2023/10/28 11:11:19;;;;;;;4.20;0.80;;;13.40;99.90;;;;;;5008325;28;20033;-73
2023/10/28 11:13:45;;;;;;;4.68;1.08;;;13.40;99.90;;;;;;5009926;28;20513;-73
2023/10/28 11:16:22;;;;;;;5.07;0.85;;;13.40;99.90;;;;;;5008376;28;20037;-71
2023/10/28 11:18:48;;;;;;;11.13;1.33;;;13.50;99.90;;;;;;5007497;28;20107;-73
2023/10/28 11:21:15;;;;;;;7.40;1.20;;;13.50;99.90;;;;;;5013918;28;20034;-72
2023/10/28 11:23:41;;;;;;;5.90;1.15;;;13.50;99.90;;;;;;5011418;28;20038;-75
2023/10/28 11:26:07;;;;;;;6.90;0.98;;;13.70;99.90;;;;;;5010839;28;20041;-74
2023/10/28 11:28:33;;;;;;;7.03;1.08;;;13.70;99.90;;;;;;5009048;28;20095;-73
2023/10/28 11:30:59;;;;;;;3.95;0.95;;;13.90;99.90;;;;;;4999879;28;20034;-72
2023/10/28 11:33:26;;;;;;;6.25;1.92;;;14.10;99.90;;;;;;4990518;28;20109;-73
2023/10/28 11:35:52;;;;;;;7.18;1.17;;;14.00;99.90;;;;;;5011750;28;20025;-72
2023/10/28 11:38:18;;;;;;;14.10;1.17;;;14.00;99.90;;;;;;5010214;28;20208;-73
2023/10/28 11:40:43;;;;;;;7.97;0.93;;;14.00;99.90;;;;;;5011455;28;20030;-72
2023/10/28 11:43:10;;;;;;;8.82;1.17;;;14.10;99.90;;;;;;5010374;28;20421;-73
2023/10/28 11:45:35;;;;;;;8.23;0.93;;;14.20;99.90;;;;;;5009893;28;20045;-72
2023/10/28 11:48:01;;;;;;;10.90;1.30;;;14.20;99.90;;;;;;5011382;28;20080;-70
2023/10/28 11:50:27;;;;;;;9.85;1.38;;;14.20;99.90;;;;;;5026940;28;20032;-72
2023/10/28 11:52:53;;;;;;;7.95;1.15;;;14.40;99.90;;;;;;5015210;28;20041;-72
2023/10/28 11:55:19;;;;;;;4.70;1.10;;;14.30;99.90;;;;;;5010123;28;20033;-73
2023/10/28 11:57:45;;;;;;;6.53;1.20;;;14.10;99.90;;;;;;5010890;28;20388;-72
2023/10/28 12:00:12;;;;;;;7.82;1.20;;;14.00;99.90;;;;;;5006954;28;20025;-70
2023/10/28 12:02:38;;;;;;;4.57;1.20;;;14.00;99.90;;;;;;4993482;28;20041;-72
2023/10/28 12:05:04;;;;;;;5.03;1.05;;;13.90;99.90;;;;;;5010890;28;20473;-71
2023/10/28 12:07:29;;;;;;;8.25;1.27;;;13.90;99.90;;;;;;4997949;28;20033;-72
2023/10/28 12:09:55;;;;;;;7.03;1.10;;;13.90;99.90;;;;;;5030876;28;20122;-72
2023/10/28 12:12:21;;;;;;;9.68;1.55;;;13.90;99.90;;;;;;5011856;28;20330;-71
2023/10/28 12:14:46;;;;;;;4.55;1.10;;;13.90;99.90;;;;;;5010319;28;20443;-72
2023/10/28 12:17:12;;;;;;;4.07;1.40;;;13.80;99.90;;;;;;5010391;28;20048;-73
2023/10/28 12:19:40;;;;;;;8.80;1.30;;;13.80;99.90;;;;;;5010042;28;20513;-71
2023/10/28 12:22:05;;;;;;;5.85;0.82;;;13.70;99.90;;;;;;5016091;28;20030;-71
2023/10/28 12:24:33;;;;;;;6.65;1.20;;;13.70;99.90;;;;;;4991685;28;20050;-72
2023/10/28 12:26:58;;;;;;;4.47;1.23;;;13.70;99.90;;;;;;4985039;28;20489;-72
2023/10/28 12:29:25;;;;;;;7.32;1.30;;;13.80;99.90;;;;;;5006847;28;20028;-72
2023/10/28 12:31:51;;;;;;;5.65;1.23;;;13.70;99.90;;;;;;5017795;28;20405;-72
2023/10/28 12:34:17;;;;;;;7.57;1.10;;;13.70;99.90;;;;;;5008986;28;20053;-74
2023/10/28 12:36:46;;;;;;;11.40;1.58;;;13.70;99.90;;;;;;5010039;28;20034;-71
2023/10/28 12:39:16;;;;;;;6.68;1.10;;;13.70;99.90;;;;;;5008848;28;20030;-73
2023/10/28 12:41:44;;;;;;;5.75;1.02;;;13.70;99.90;;;;;;5003672;28;20034;-72
2023/10/28 12:44:11;;;;;;;4.78;1.10;;;13.70;99.90;;;;;;5009044;28;20034;-72
2023/10/28 12:46:36;;;;;;;8.43;1.58;;;13.70;99.90;;;;;;5009277;28;20036;-72
2023/10/28 12:49:02;;;;;;;9.05;1.30;;;13.70;99.90;;;;;;5008585;28;20105;-72
2023/10/28 12:51:28;;;;;;;8.45;1.15;;;13.80;99.90;;;;;;5009180;28;20100;-72